sensor_id;sensor_type;location;lat;lon;timestamp;P1;durP1;ratioP1;P2;durP2;ratioP2
60665;SDS011;59128;44.642;21.188;2022-11-20T00:01:08;17.20;;;11.65;;
60665;SDS011;59128;44.642;21.188;2022-11-20T00:03:34;15.75;;;11.10;;
60665;SDS011;59128;44.642;21.188;2022-11-20T00:06:04;18.15;;;12.75;;
60665;SDS011;59128;44.642;21.188;2022-11-20T00:08:31;19.10;;;13.65;;
60665;SDS011;59128;44.642;21.188;2022-11-20T00:10:57;18.20;;;12.73;;
60665;SDS011;59128;44.642;21.188;2022-11-20T00:13:23;19.75;;;14.07;;
60665;SDS011;59128;44.642;21.188;2022-11-20T00:15:56;20.33;;;14.43;;
60665;SDS011;59128;44.642;21.188;2022-11-20T00:18:22;18.37;;;13.30;;
60665;SDS011;59128;44.642;21.188;2022-11-20T00:20:48;23.58;;;16.42;;
60665;SDS011;59128;44.642;21.188;2022-11-20T00:23:14;20.42;;;14.55;;
60665;SDS011;59128;44.642;21.188;2022-11-20T00:25:40;19.33;;;14.48;;
60665;SDS011;59128;44.642;21.188;2022-11-20T00:28:06;18.70;;;14.07;;
60665;SDS011;59128;44.642;21.188;2022-11-20T00:30:32;17.25;;;14.13;;
60665;SDS011;59128;44.642;21.188;2022-11-20T00:32:58;14.57;;;12.05;;
60665;SDS011;59128;44.642;21.188;2022-11-20T00:35:24;13.88;;;11.57;;
60665;SDS011;59128;44.642;21.188;2022-11-20T00:37:50;12.70;;;10.98;;
60665;SDS011;59128;44.642;21.188;2022-11-20T00:40:16;15.13;;;11.68;;
60665;SDS011;59128;44.642;21.188;2022-11-20T00:42:42;11.80;;;10.50;;
60665;SDS011;59128;44.642;21.188;2022-11-20T00:45:08;12.30;;;10.15;;
60665;SDS011;59128;44.642;21.188;2022-11-20T00:47:34;19.70;;;15.57;;
60665;SDS011;59128;44.642;21.188;2022-11-20T00:50:00;17.88;;;14.10;;
60665;SDS011;59128;44.642;21.188;2022-11-20T00:52:26;15.45;;;13.10;;
60665;SDS011;59128;44.642;21.188;2022-11-20T00:54:52;14.65;;;12.95;;
60665;SDS011;59128;44.642;21.188;2022-11-20T00:57:18;47.08;;;35.75;;
60665;SDS011;59128;44.642;21.188;2022-11-20T00:59:44;58.47;;;44.50;;
60665;SDS011;59128;44.642;21.188;2022-11-20T01:02:10;38.28;;;29.83;;
60665;SDS011;59128;44.642;21.188;2022-11-20T01:04:36;31.35;;;24.63;;
60665;SDS011;59128;44.642;21.188;2022-11-20T01:07:02;16.20;;;13.07;;
60665;SDS011;59128;44.642;21.188;2022-11-20T01:09:28;11.02;;;9.10;;
60665;SDS011;59128;44.642;21.188;2022-11-20T01:11:54;8.20;;;6.68;;
60665;SDS011;59128;44.642;21.188;2022-11-20T01:14:21;8.00;;;6.60;;
60665;SDS011;59128;44.642;21.188;2022-11-20T01:16:48;7.43;;;6.38;;
60665;SDS011;59128;44.642;21.188;2022-11-20T01:19:18;7.43;;;6.60;;
60665;SDS011;59128;44.642;21.188;2022-11-20T01:21:45;8.43;;;6.70;;
60665;SDS011;59128;44.642;21.188;2022-11-20T01:24:12;6.80;;;6.10;;
60665;SDS011;59128;44.642;21.188;2022-11-20T01:26:38;7.03;;;6.10;;
60665;SDS011;59128;44.642;21.188;2022-11-20T01:29:05;8.27;;;5.85;;
60665;SDS011;59128;44.642;21.188;2022-11-20T01:31:33;6.53;;;5.33;;
60665;SDS011;59128;44.642;21.188;2022-11-20T01:34:00;7.90;;;5.78;;
60665;SDS011;59128;44.642;21.188;2022-11-20T01:36:27;5.82;;;4.88;;
60665;SDS011;59128;44.642;21.188;2022-11-20T01:38:54;7.35;;;4.63;;
60665;SDS011;59128;44.642;21.188;2022-11-20T01:41:21;6.60;;;4.75;;
60665;SDS011;59128;44.642;21.188;2022-11-20T01:44:06;6.13;;;4.30;;
60665;SDS011;59128;44.642;21.188;2022-11-20T01:46:33;4.40;;;3.03;;
60665;SDS011;59128;44.642;21.188;2022-11-20T01:51:52;11.55;;;7.28;;
60665;SDS011;59128;44.642;21.188;2022-11-20T01:54:25;6.32;;;4.60;;
60665;SDS011;59128;44.642;21.188;2022-11-20T01:56:53;7.88;;;5.35;;
60665;SDS011;59128;44.642;21.188;2022-11-20T01:59:20;7.82;;;5.50;;
60665;SDS011;59128;44.642;21.188;2022-11-20T02:01:47;5.10;;;3.92;;
60665;SDS011;59128;44.642;21.188;2022-11-20T02:04:13;5.53;;;4.30;;
60665;SDS011;59128;44.642;21.188;2022-11-20T02:06:42;8.07;;;5.68;;
60665;SDS011;59128;44.642;21.188;2022-11-20T02:09:10;8.60;;;5.80;;
60665;SDS011;59128;44.642;21.188;2022-11-20T02:11:36;11.75;;;9.18;;
60665;SDS011;59128;44.642;21.188;2022-11-20T02:14:02;6.97;;;4.97;;
60665;SDS011;59128;44.642;21.188;2022-11-20T02:16:30;7.47;;;5.80;;
60665;SDS011;59128;44.642;21.188;2022-11-20T02:18:57;11.65;;;8.63;;
60665;SDS011;59128;44.642;21.188;2022-11-20T02:21:35;8.60;;;6.32;;
60665;SDS011;59128;44.642;21.188;2022-11-20T02:24:03;10.85;;;8.38;;
60665;SDS011;59128;44.642;21.188;2022-11-20T02:26:30;6.15;;;4.70;;
60665;SDS011;59128;44.642;21.188;2022-11-20T02:28:58;4.80;;;3.45;;
60665;SDS011;59128;44.642;21.188;2022-11-20T02:31:24;3.65;;;2.67;;
60665;SDS011;59128;44.642;21.188;2022-11-20T02:33:57;6.45;;;4.68;;
60665;SDS011;59128;44.642;21.188;2022-11-20T02:36:23;8.55;;;6.22;;
60665;SDS011;59128;44.642;21.188;2022-11-20T02:38:50;6.90;;;5.45;;
60665;SDS011;59128;44.642;21.188;2022-11-20T02:41:16;19.13;;;16.20;;
60665;SDS011;59128;44.642;21.188;2022-11-20T02:43:42;17.33;;;11.95;;
60665;SDS011;59128;44.642;21.188;2022-11-20T02:46:08;38.15;;;31.50;;
60665;SDS011;59128;44.642;21.188;2022-11-20T02:48:34;16.67;;;14.07;;
60665;SDS011;59128;44.642;21.188;2022-11-20T02:51:00;15.65;;;10.85;;
60665;SDS011;59128;44.642;21.188;2022-11-20T02:53:26;2.80;;;2.30;;
60665;SDS011;59128;44.642;21.188;2022-11-20T02:55:52;7.90;;;5.72;;
60665;SDS011;59128;44.642;21.188;2022-11-20T02:58:19;5.20;;;3.15;;
60665;SDS011;59128;44.642;21.188;2022-11-20T03:00:45;7.80;;;5.17;;
60665;SDS011;59128;44.642;21.188;2022-11-20T03:03:11;7.10;;;5.43;;
60665;SDS011;59128;44.642;21.188;2022-11-20T03:05:37;7.38;;;5.20;;
60665;SDS011;59128;44.642;21.188;2022-11-20T03:08:03;4.90;;;4.32;;
60665;SDS011;59128;44.642;21.188;2022-11-20T03:10:29;4.63;;;4.00;;
60665;SDS011;59128;44.642;21.188;2022-11-20T03:12:55;18.42;;;13.52;;
60665;SDS011;59128;44.642;21.188;2022-11-20T03:15:22;10.90;;;7.95;;
60665;SDS011;59128;44.642;21.188;2022-11-20T03:17:48;7.30;;;5.63;;
60665;SDS011;59128;44.642;21.188;2022-11-20T03:20:14;6.55;;;5.15;;
60665;SDS011;59128;44.642;21.188;2022-11-20T03:22:40;5.07;;;4.55;;
60665;SDS011;59128;44.642;21.188;2022-11-20T03:25:06;6.40;;;4.85;;
60665;SDS011;59128;44.642;21.188;2022-11-20T03:27:33;7.53;;;5.97;;
60665;SDS011;59128;44.642;21.188;2022-11-20T03:29:59;9.20;;;6.82;;
60665;SDS011;59128;44.642;21.188;2022-11-20T03:32:26;8.82;;;5.90;;
60665;SDS011;59128;44.642;21.188;2022-11-20T03:34:52;7.40;;;5.60;;
60665;SDS011;59128;44.642;21.188;2022-11-20T03:37:18;32.22;;;24.92;;
60665;SDS011;59128;44.642;21.188;2022-11-20T03:39:44;11.90;;;8.60;;
60665;SDS011;59128;44.642;21.188;2022-11-20T03:42:10;8.47;;;6.47;;
60665;SDS011;59128;44.642;21.188;2022-11-20T03:44:56;6.88;;;4.75;;
60665;SDS011;59128;44.642;21.188;2022-11-20T03:47:22;10.60;;;7.68;;
60665;SDS011;59128;44.642;21.188;2022-11-20T03:49:48;28.13;;;19.53;;
60665;SDS011;59128;44.642;21.188;2022-11-20T03:52:14;30.52;;;20.85;;
60665;SDS011;59128;44.642;21.188;2022-11-20T03:54:40;34.33;;;24.17;;
60665;SDS011;59128;44.642;21.188;2022-11-20T03:57:06;60.50;;;37.38;;
60665;SDS011;59128;44.642;21.188;2022-11-20T03:59:32;19.15;;;14.40;;
60665;SDS011;59128;44.642;21.188;2022-11-20T04:01:58;18.83;;;14.85;;
60665;SDS011;59128;44.642;21.188;2022-11-20T04:04:24;21.02;;;16.25;;
60665;SDS011;59128;44.642;21.188;2022-11-20T04:06:50;2.40;;;2.20;;
60665;SDS011;59128;44.642;21.188;2022-11-20T04:09:16;22.23;;;16.85;;
60665;SDS011;59128;44.642;21.188;2022-11-20T04:11:42;43.88;;;36.13;;
60665;SDS011;59128;44.642;21.188;2022-11-20T04:14:13;19.83;;;15.75;;
60665;SDS011;59128;44.642;21.188;2022-11-20T04:16:39;10.02;;;7.55;;
60665;SDS011;59128;44.642;21.188;2022-11-20T04:19:08;10.80;;;7.63;;
60665;SDS011;59128;44.642;21.188;2022-11-20T04:21:35;6.80;;;5.40;;
60665;SDS011;59128;44.642;21.188;2022-11-20T04:24:01;5.13;;;3.60;;
60665;SDS011;59128;44.642;21.188;2022-11-20T04:26:27;3.45;;;2.92;;
60665;SDS011;59128;44.642;21.188;2022-11-20T04:28:54;3.35;;;2.20;;
60665;SDS011;59128;44.642;21.188;2022-11-20T04:31:21;2.33;;;2.10;;
60665;SDS011;59128;44.642;21.188;2022-11-20T04:33:47;2.25;;;2.00;;
60665;SDS011;59128;44.642;21.188;2022-11-20T04:36:15;2.35;;;1.80;;
60665;SDS011;59128;44.642;21.188;2022-11-20T04:38:41;3.10;;;2.08;;
60665;SDS011;59128;44.642;21.188;2022-11-20T04:41:08;2.72;;;2.53;;
60665;SDS011;59128;44.642;21.188;2022-11-20T04:43:35;2.80;;;2.40;;
60665;SDS011;59128;44.642;21.188;2022-11-20T04:46:01;3.35;;;3.05;;
60665;SDS011;59128;44.642;21.188;2022-11-20T04:48:28;3.45;;;3.15;;
60665;SDS011;59128;44.642;21.188;2022-11-20T04:50:54;3.28;;;2.97;;
60665;SDS011;59128;44.642;21.188;2022-11-20T04:53:20;2.75;;;2.55;;
60665;SDS011;59128;44.642;21.188;2022-11-20T04:55:47;3.17;;;2.88;;
60665;SDS011;59128;44.642;21.188;2022-11-20T04:58:13;4.57;;;3.70;;
60665;SDS011;59128;44.642;21.188;2022-11-20T05:00:40;4.22;;;3.72;;
60665;SDS011;59128;44.642;21.188;2022-11-20T05:03:06;3.10;;;2.80;;
60665;SDS011;59128;44.642;21.188;2022-11-20T05:05:33;3.35;;;2.80;;
60665;SDS011;59128;44.642;21.188;2022-11-20T05:07:59;3.08;;;2.78;;
60665;SDS011;59128;44.642;21.188;2022-11-20T05:10:25;3.85;;;3.47;;
60665;SDS011;59128;44.642;21.188;2022-11-20T05:12:51;6.47;;;4.50;;
60665;SDS011;59128;44.642;21.188;2022-11-20T05:15:18;4.50;;;3.80;;
60665;SDS011;59128;44.642;21.188;2022-11-20T05:17:50;3.90;;;3.50;;
60665;SDS011;59128;44.642;21.188;2022-11-20T05:20:17;6.10;;;3.60;;
60665;SDS011;59128;44.642;21.188;2022-11-20T05:22:43;3.95;;;3.55;;
60665;SDS011;59128;44.642;21.188;2022-11-20T05:25:09;3.55;;;3.17;;
60665;SDS011;59128;44.642;21.188;2022-11-20T05:27:35;3.40;;;3.10;;
60665;SDS011;59128;44.642;21.188;2022-11-20T05:30:02;23.40;;;21.20;;
60665;SDS011;59128;44.642;21.188;2022-11-20T05:32:28;7.93;;;6.88;;
60665;SDS011;59128;44.642;21.188;2022-11-20T05:34:54;5.68;;;5.07;;
60665;SDS011;59128;44.642;21.188;2022-11-20T05:37:20;4.38;;;3.58;;
60665;SDS011;59128;44.642;21.188;2022-11-20T05:39:46;4.85;;;3.80;;
60665;SDS011;59128;44.642;21.188;2022-11-20T05:42:12;6.03;;;5.40;;
60665;SDS011;59128;44.642;21.188;2022-11-20T05:45:00;18.92;;;17.10;;
60665;SDS011;59128;44.642;21.188;2022-11-20T05:47:27;28.60;;;25.90;;
60665;SDS011;59128;44.642;21.188;2022-11-20T05:49:54;22.00;;;19.90;;
60665;SDS011;59128;44.642;21.188;2022-11-20T05:52:20;16.92;;;15.30;;
60665;SDS011;59128;44.642;21.188;2022-11-20T05:54:46;17.33;;;15.55;;
60665;SDS011;59128;44.642;21.188;2022-11-20T05:57:12;13.45;;;12.15;;
60665;SDS011;59128;44.642;21.188;2022-11-20T05:59:38;10.82;;;9.73;;
60665;SDS011;59128;44.642;21.188;2022-11-20T06:02:04;10.37;;;9.27;;
60665;SDS011;59128;44.642;21.188;2022-11-20T06:04:30;10.70;;;9.27;;
60665;SDS011;59128;44.642;21.188;2022-11-20T06:06:56;10.30;;;9.05;;
60665;SDS011;59128;44.642;21.188;2022-11-20T06:09:22;6.00;;;5.40;;
60665;SDS011;59128;44.642;21.188;2022-11-20T06:11:48;10.48;;;9.25;;
60665;SDS011;59128;44.642;21.188;2022-11-20T06:14:14;31.95;;;24.73;;
60665;SDS011;59128;44.642;21.188;2022-11-20T06:16:40;23.50;;;19.05;;
60665;SDS011;59128;44.642;21.188;2022-11-20T06:19:06;41.27;;;32.47;;
60665;SDS011;59128;44.642;21.188;2022-11-20T06:21:32;60.00;;;48.92;;
60665;SDS011;59128;44.642;21.188;2022-11-20T06:23:58;49.80;;;40.30;;
60665;SDS011;59128;44.642;21.188;2022-11-20T06:26:27;281.77;;;144.88;;
60665;SDS011;59128;44.642;21.188;2022-11-20T06:28:53;216.73;;;121.75;;
60665;SDS011;59128;44.642;21.188;2022-11-20T06:31:22;80.85;;;54.85;;
60665;SDS011;59128;44.642;21.188;2022-11-20T06:33:49;25.33;;;19.75;;
60665;SDS011;59128;44.642;21.188;2022-11-20T06:36:16;15.13;;;11.50;;
60665;SDS011;59128;44.642;21.188;2022-11-20T06:38:42;9.23;;;8.20;;
60665;SDS011;59128;44.642;21.188;2022-11-20T06:41:12;9.82;;;8.02;;
60665;SDS011;59128;44.642;21.188;2022-11-20T06:43:39;10.05;;;8.55;;
60665;SDS011;59128;44.642;21.188;2022-11-20T06:46:05;12.88;;;11.50;;
60665;SDS011;59128;44.642;21.188;2022-11-20T06:48:31;14.98;;;13.38;;
60665;SDS011;59128;44.642;21.188;2022-11-20T06:50:57;18.92;;;17.02;;
60665;SDS011;59128;44.642;21.188;2022-11-20T06:53:24;19.50;;;17.50;;
60665;SDS011;59128;44.642;21.188;2022-11-20T06:55:50;21.40;;;19.20;;
60665;SDS011;59128;44.642;21.188;2022-11-20T06:58:17;25.85;;;23.15;;
60665;SDS011;59128;44.642;21.188;2022-11-20T07:00:43;26.45;;;23.75;;
60665;SDS011;59128;44.642;21.188;2022-11-20T07:03:10;25.77;;;23.02;;
60665;SDS011;59128;44.642;21.188;2022-11-20T07:05:36;38.88;;;34.60;;
60665;SDS011;59128;44.642;21.188;2022-11-20T07:08:03;26.08;;;23.38;;
60665;SDS011;59128;44.642;21.188;2022-11-20T07:10:30;62.77;;;50.40;;
60665;SDS011;59128;44.642;21.188;2022-11-20T07:12:56;59.47;;;49.08;;
60665;SDS011;59128;44.642;21.188;2022-11-20T07:15:23;40.25;;;34.63;;
60665;SDS011;59128;44.642;21.188;2022-11-20T07:17:49;37.65;;;31.20;;
60665;SDS011;59128;44.642;21.188;2022-11-20T07:20:16;70.93;;;55.58;;
60665;SDS011;59128;44.642;21.188;2022-11-20T07:22:42;59.17;;;46.65;;
60665;SDS011;59128;44.642;21.188;2022-11-20T07:25:08;51.80;;;42.17;;
60665;SDS011;59128;44.642;21.188;2022-11-20T07:27:35;33.47;;;27.92;;
60665;SDS011;59128;44.642;21.188;2022-11-20T07:30:02;53.33;;;43.60;;
60665;SDS011;59128;44.642;21.188;2022-11-20T07:32:28;51.83;;;41.55;;
60665;SDS011;59128;44.642;21.188;2022-11-20T07:34:54;41.90;;;34.38;;
60665;SDS011;59128;44.642;21.188;2022-11-20T07:37:20;22.00;;;18.55;;
60665;SDS011;59128;44.642;21.188;2022-11-20T07:39:46;12.05;;;10.85;;
60665;SDS011;59128;44.642;21.188;2022-11-20T07:42:12;16.52;;;14.73;;
60665;SDS011;59128;44.642;21.188;2022-11-20T07:44:38;18.03;;;15.50;;
60665;SDS011;59128;44.642;21.188;2022-11-20T07:47:04;16.20;;;14.50;;
60665;SDS011;59128;44.642;21.188;2022-11-20T07:49:30;49.65;;;45.45;;
60665;SDS011;59128;44.642;21.188;2022-11-20T07:51:56;20.48;;;18.50;;
60665;SDS011;59128;44.642;21.188;2022-11-20T07:54:22;15.98;;;14.38;;
60665;SDS011;59128;44.642;21.188;2022-11-20T07:56:49;16.52;;;14.85;;
60665;SDS011;59128;44.642;21.188;2022-11-20T07:59:15;22.10;;;20.13;;
60665;SDS011;59128;44.642;21.188;2022-11-20T08:01:42;15.35;;;13.93;;
60665;SDS011;59128;44.642;21.188;2022-11-20T08:04:08;13.38;;;12.07;;
60665;SDS011;59128;44.642;21.188;2022-11-20T08:06:35;25.38;;;23.08;;
60665;SDS011;59128;44.642;21.188;2022-11-20T08:09:01;18.50;;;16.90;;
60665;SDS011;59128;44.642;21.188;2022-11-20T08:11:27;17.25;;;15.60;;
60665;SDS011;59128;44.642;21.188;2022-11-20T08:14:12;18.33;;;16.45;;
60665;SDS011;59128;44.642;21.188;2022-11-20T08:16:38;14.02;;;12.52;;
60665;SDS011;59128;44.642;21.188;2022-11-20T08:19:05;19.50;;;17.60;;
60665;SDS011;59128;44.642;21.188;2022-11-20T08:21:31;18.80;;;16.77;;
60665;SDS011;59128;44.642;21.188;2022-11-20T08:23:57;20.52;;;16.52;;
60665;SDS011;59128;44.642;21.188;2022-11-20T08:26:24;23.33;;;16.65;;
60665;SDS011;59128;44.642;21.188;2022-11-20T08:28:52;23.98;;;17.23;;
60665;SDS011;59128;44.642;21.188;2022-11-20T08:31:19;24.70;;;17.63;;
60665;SDS011;59128;44.642;21.188;2022-11-20T08:33:45;30.67;;;21.93;;
60665;SDS011;59128;44.642;21.188;2022-11-20T08:36:11;36.85;;;24.17;;
60665;SDS011;59128;44.642;21.188;2022-11-20T08:38:38;34.92;;;23.60;;
60665;SDS011;59128;44.642;21.188;2022-11-20T08:41:04;38.67;;;24.20;;
60665;SDS011;59128;44.642;21.188;2022-11-20T08:43:49;37.75;;;25.05;;
60665;SDS011;59128;44.642;21.188;2022-11-20T08:46:15;36.80;;;24.73;;
60665;SDS011;59128;44.642;21.188;2022-11-20T08:48:41;41.03;;;27.10;;
60665;SDS011;59128;44.642;21.188;2022-11-20T08:51:08;40.67;;;26.80;;
60665;SDS011;59128;44.642;21.188;2022-11-20T08:53:34;42.63;;;28.38;;
60665;SDS011;59128;44.642;21.188;2022-11-20T08:56:00;45.65;;;33.90;;
60665;SDS011;59128;44.642;21.188;2022-11-20T08:58:26;44.30;;;28.57;;
60665;SDS011;59128;44.642;21.188;2022-11-20T09:00:52;45.70;;;27.98;;
60665;SDS011;59128;44.642;21.188;2022-11-20T09:03:18;41.40;;;26.58;;
60665;SDS011;59128;44.642;21.188;2022-11-20T09:05:44;41.93;;;25.03;;
60665;SDS011;59128;44.642;21.188;2022-11-20T09:08:10;42.50;;;25.88;;
60665;SDS011;59128;44.642;21.188;2022-11-20T09:10:37;43.60;;;25.43;;
60665;SDS011;59128;44.642;21.188;2022-11-20T09:13:06;40.70;;;24.57;;
60665;SDS011;59128;44.642;21.188;2022-11-20T09:15:32;39.20;;;23.80;;
60665;SDS011;59128;44.642;21.188;2022-11-20T09:17:59;36.88;;;22.98;;
60665;SDS011;59128;44.642;21.188;2022-11-20T09:20:26;39.28;;;25.10;;
60665;SDS011;59128;44.642;21.188;2022-11-20T09:22:55;36.15;;;24.75;;
60665;SDS011;59128;44.642;21.188;2022-11-20T09:25:21;36.80;;;24.70;;
60665;SDS011;59128;44.642;21.188;2022-11-20T09:27:47;36.05;;;25.45;;
60665;SDS011;59128;44.642;21.188;2022-11-20T09:30:14;37.90;;;26.55;;
60665;SDS011;59128;44.642;21.188;2022-11-20T09:32:40;39.40;;;26.13;;
60665;SDS011;59128;44.642;21.188;2022-11-20T09:35:07;37.37;;;25.93;;
60665;SDS011;59128;44.642;21.188;2022-11-20T09:37:33;40.92;;;27.88;;
60665;SDS011;59128;44.642;21.188;2022-11-20T09:39:59;39.40;;;25.48;;
60665;SDS011;59128;44.642;21.188;2022-11-20T09:47:45;35.60;;;27.42;;
60665;SDS011;59128;44.642;21.188;2022-11-20T09:53:15;32.22;;;23.88;;
60665;SDS011;59128;44.642;21.188;2022-11-20T09:55:32;31.15;;;23.45;;
60665;SDS011;59128;44.642;21.188;2022-11-20T09:57:59;30.58;;;23.33;;
60665;SDS011;59128;44.642;21.188;2022-11-20T10:00:25;30.77;;;23.77;;
60665;SDS011;59128;44.642;21.188;2022-11-20T10:02:55;35.13;;;26.50;;
60665;SDS011;59128;44.642;21.188;2022-11-20T10:05:23;36.67;;;28.20;;
60665;SDS011;59128;44.642;21.188;2022-11-20T10:15:38;33.85;;;29.00;;
60665;SDS011;59128;44.642;21.188;2022-11-20T10:18:15;39.15;;;30.52;;
60665;SDS011;59128;44.642;21.188;2022-11-20T10:31:07;40.17;;;31.38;;
60665;SDS011;59128;44.642;21.188;2022-11-20T10:33:39;39.63;;;29.67;;
60665;SDS011;59128;44.642;21.188;2022-11-20T10:38:34;38.85;;;28.85;;
60665;SDS011;59128;44.642;21.188;2022-11-20T10:41:02;38.92;;;29.63;;
60665;SDS011;59128;44.642;21.188;2022-11-20T10:43:48;38.10;;;29.30;;
60665;SDS011;59128;44.642;21.188;2022-11-20T10:46:25;36.43;;;26.83;;
60665;SDS011;59128;44.642;21.188;2022-11-20T10:48:51;36.35;;;28.13;;
60665;SDS011;59128;44.642;21.188;2022-11-20T10:51:21;40.70;;;30.15;;
60665;SDS011;59128;44.642;21.188;2022-11-20T10:53:57;35.70;;;28.43;;
60665;SDS011;59128;44.642;21.188;2022-11-20T11:01:42;32.92;;;24.90;;
60665;SDS011;59128;44.642;21.188;2022-11-20T11:04:32;32.97;;;24.67;;
60665;SDS011;59128;44.642;21.188;2022-11-20T11:06:55;29.17;;;22.65;;
60665;SDS011;59128;44.642;21.188;2022-11-20T11:09:26;28.90;;;22.87;;
60665;SDS011;59128;44.642;21.188;2022-11-20T11:11:53;27.77;;;21.00;;
60665;SDS011;59128;44.642;21.188;2022-11-20T11:14:19;27.95;;;20.67;;
60665;SDS011;59128;44.642;21.188;2022-11-20T11:16:49;27.98;;;21.00;;
60665;SDS011;59128;44.642;21.188;2022-11-20T11:19:16;26.17;;;20.67;;
60665;SDS011;59128;44.642;21.188;2022-11-20T11:21:49;23.77;;;20.23;;
60665;SDS011;59128;44.642;21.188;2022-11-20T11:24:20;25.15;;;20.70;;
60665;SDS011;59128;44.642;21.188;2022-11-20T11:27:00;24.42;;;20.23;;
60665;SDS011;59128;44.642;21.188;2022-11-20T11:29:29;29.17;;;22.38;;
60665;SDS011;59128;44.642;21.188;2022-11-20T11:34:30;23.10;;;19.58;;
60665;SDS011;59128;44.642;21.188;2022-11-20T11:36:57;23.77;;;19.80;;
60665;SDS011;59128;44.642;21.188;2022-11-20T11:39:23;22.63;;;20.10;;
60665;SDS011;59128;44.642;21.188;2022-11-20T11:41:50;23.48;;;20.15;;
60665;SDS011;59128;44.642;21.188;2022-11-20T11:44:18;21.30;;;19.03;;
60665;SDS011;59128;44.642;21.188;2022-11-20T11:47:03;19.50;;;17.40;;
60665;SDS011;59128;44.642;21.188;2022-11-20T11:49:31;19.00;;;17.00;;
60665;SDS011;59128;44.642;21.188;2022-11-20T11:56:56;18.35;;;15.68;;
60665;SDS011;59128;44.642;21.188;2022-11-20T11:59:30;17.43;;;15.63;;
60665;SDS011;59128;44.642;21.188;2022-11-20T12:02:03;16.27;;;14.57;;
60665;SDS011;59128;44.642;21.188;2022-11-20T12:04:44;16.83;;;14.97;;
60665;SDS011;59128;44.642;21.188;2022-11-20T12:09:53;15.68;;;13.95;;
60665;SDS011;59128;44.642;21.188;2022-11-20T12:12:22;15.68;;;14.02;;
60665;SDS011;59128;44.642;21.188;2022-11-20T12:14:50;14.03;;;12.63;;
60665;SDS011;59128;44.642;21.188;2022-11-20T12:17:18;13.55;;;12.15;;
60665;SDS011;59128;44.642;21.188;2022-11-20T12:19:44;14.13;;;12.63;;
60665;SDS011;59128;44.642;21.188;2022-11-20T12:28:18;10.95;;;9.80;;
60665;SDS011;59128;44.642;21.188;2022-11-20T12:30:36;16.17;;;14.10;;
60665;SDS011;59128;44.642;21.188;2022-11-20T12:43:24;15.05;;;13.45;;
60665;SDS011;59128;44.642;21.188;2022-11-20T12:46:16;21.10;;;18.05;;
60665;SDS011;59128;44.642;21.188;2022-11-20T12:48:50;22.85;;;18.65;;
60665;SDS011;59128;44.642;21.188;2022-11-20T12:56:57;19.85;;;17.73;;
60665;SDS011;59128;44.642;21.188;2022-11-20T13:02:01;22.60;;;18.95;;
60665;SDS011;59128;44.642;21.188;2022-11-20T13:07:16;22.45;;;18.48;;
60665;SDS011;59128;44.642;21.188;2022-11-20T13:09:43;22.25;;;18.30;;
60665;SDS011;59128;44.642;21.188;2022-11-20T13:14:45;21.20;;;17.27;;
60665;SDS011;59128;44.642;21.188;2022-11-20T13:17:17;20.93;;;17.30;;
60665;SDS011;59128;44.642;21.188;2022-11-20T13:19:54;17.48;;;15.27;;
60665;SDS011;59128;44.642;21.188;2022-11-20T13:22:24;20.27;;;16.48;;
60665;SDS011;59128;44.642;21.188;2022-11-20T13:24:51;17.15;;;14.77;;
60665;SDS011;59128;44.642;21.188;2022-11-20T13:27:18;16.40;;;14.10;;
60665;SDS011;59128;44.642;21.188;2022-11-20T13:29:45;15.88;;;13.60;;
60665;SDS011;59128;44.642;21.188;2022-11-20T13:32:18;20.85;;;15.88;;
60665;SDS011;59128;44.642;21.188;2022-11-20T13:34:56;16.75;;;14.18;;
60665;SDS011;59128;44.642;21.188;2022-11-20T13:37:29;17.93;;;15.60;;
60665;SDS011;59128;44.642;21.188;2022-11-20T13:42:31;18.70;;;15.90;;
60665;SDS011;59128;44.642;21.188;2022-11-20T13:45:01;19.38;;;17.13;;
60665;SDS011;59128;44.642;21.188;2022-11-20T13:47:28;19.33;;;16.40;;
60665;SDS011;59128;44.642;21.188;2022-11-20T13:49:55;17.63;;;15.32;;
60665;SDS011;59128;44.642;21.188;2022-11-20T13:55:40;15.70;;;14.07;;
60665;SDS011;59128;44.642;21.188;2022-11-20T14:00:20;16.55;;;14.85;;
60665;SDS011;59128;44.642;21.188;2022-11-20T14:02:53;15.50;;;13.90;;
60665;SDS011;59128;44.642;21.188;2022-11-20T14:05:24;16.25;;;14.65;;
60665;SDS011;59128;44.642;21.188;2022-11-20T14:07:51;16.00;;;14.30;;
60665;SDS011;59128;44.642;21.188;2022-11-20T14:10:21;15.52;;;13.93;;
60665;SDS011;59128;44.642;21.188;2022-11-20T14:12:48;15.73;;;13.97;;
60665;SDS011;59128;44.642;21.188;2022-11-20T14:15:29;15.55;;;13.85;;
60665;SDS011;59128;44.642;21.188;2022-11-20T14:17:56;15.20;;;13.60;;
60665;SDS011;59128;44.642;21.188;2022-11-20T14:20:23;14.27;;;12.87;;
60665;SDS011;59128;44.642;21.188;2022-11-20T14:22:50;13.95;;;12.48;;
60665;SDS011;59128;44.642;21.188;2022-11-20T14:27:43;13.35;;;11.95;;
60665;SDS011;59128;44.642;21.188;2022-11-20T14:30:13;12.82;;;11.52;;
60665;SDS011;59128;44.642;21.188;2022-11-20T14:32:40;13.10;;;11.70;;
60665;SDS011;59128;44.642;21.188;2022-11-20T14:35:08;13.27;;;11.88;;
60665;SDS011;59128;44.642;21.188;2022-11-20T14:37:36;12.10;;;10.80;;
60665;SDS011;59128;44.642;21.188;2022-11-20T14:40:04;13.18;;;11.88;;
60665;SDS011;59128;44.642;21.188;2022-11-20T14:42:31;12.10;;;10.80;;
60665;SDS011;59128;44.642;21.188;2022-11-20T14:44:58;11.53;;;10.33;;
60665;SDS011;59128;44.642;21.188;2022-11-20T14:47:25;12.75;;;11.45;;
60665;SDS011;59128;44.642;21.188;2022-11-20T14:49:52;13.32;;;11.90;;
60665;SDS011;59128;44.642;21.188;2022-11-20T14:52:19;14.25;;;12.75;;
60665;SDS011;59128;44.642;21.188;2022-11-20T14:54:46;13.40;;;12.00;;
60665;SDS011;59128;44.642;21.188;2022-11-20T14:57:28;14.77;;;13.18;;
60665;SDS011;59128;44.642;21.188;2022-11-20T15:02:30;15.57;;;13.43;;
60665;SDS011;59128;44.642;21.188;2022-11-20T15:04:57;15.00;;;13.50;;
60665;SDS011;59128;44.642;21.188;2022-11-20T15:07:47;14.13;;;12.63;;
60665;SDS011;59128;44.642;21.188;2022-11-20T15:12:47;13.35;;;11.95;;
60665;SDS011;59128;44.642;21.188;2022-11-20T15:15:21;13.43;;;12.03;;
60665;SDS011;59128;44.642;21.188;2022-11-20T15:17:50;13.75;;;12.45;;
60665;SDS011;59128;44.642;21.188;2022-11-20T15:20:16;14.07;;;12.57;;
60665;SDS011;59128;44.642;21.188;2022-11-20T15:22:43;15.30;;;12.85;;
60665;SDS011;59128;44.642;21.188;2022-11-20T15:25:13;13.90;;;12.48;;
60665;SDS011;59128;44.642;21.188;2022-11-20T15:27:39;14.18;;;12.63;;
60665;SDS011;59128;44.642;21.188;2022-11-20T15:30:11;13.63;;;12.25;;
60665;SDS011;59128;44.642;21.188;2022-11-20T15:32:38;12.55;;;11.25;;
60665;SDS011;59128;44.642;21.188;2022-11-20T15:35:04;13.57;;;11.43;;
60665;SDS011;59128;44.642;21.188;2022-11-20T15:37:30;14.27;;;12.77;;
60665;SDS011;59128;44.642;21.188;2022-11-20T15:39:56;14.60;;;12.52;;
60665;SDS011;59128;44.642;21.188;2022-11-20T15:42:22;13.23;;;11.85;;
60665;SDS011;59128;44.642;21.188;2022-11-20T15:44:48;12.43;;;11.23;;
60665;SDS011;59128;44.642;21.188;2022-11-20T15:47:15;13.02;;;11.65;;
60665;SDS011;59128;44.642;21.188;2022-11-20T15:49:42;12.33;;;11.13;;
60665;SDS011;59128;44.642;21.188;2022-11-20T15:52:08;12.20;;;11.00;;